Terminal Aerodrome Forecast
Issued by NWS

Home | Current Version | Previous Version | Text Only | Print | Product List | Glossary On
Versions: 1 2 3 4 5 6 7 8 9 10 11 12 13 14 15 16
986
FTUS43 KGRR 210100 AAA
TAFBTL
TAF AMD
KBTL 210100Z 2101/2124 18004KT P6SM BKN250
     FM210200 18004KT P6SM BKN015
     FM210900 18003KT 2SM BR OVC005
     FM211800 15006KT 1 1/2SM -DZ BR OVC003=

USA.gov is the U.S. government's official web portal to all federal, state and local government web resources and services.